sensor_id;sensor_type;location;lat;lon;timestamp;P1;durP1;ratioP1;P2;durP2;ratioP2
67828;SDS011;54626;45.436;10.942;2023-10-13T00:00:50;6.43;;;2.58;;
67828;SDS011;54626;45.436;10.942;2023-10-13T00:03:23;4.90;;;1.55;;
67828;SDS011;54626;45.436;10.942;2023-10-13T00:05:51;5.15;;;2.65;;
67828;SDS011;54626;45.436;10.942;2023-10-13T00:08:27;7.78;;;2.35;;
67828;SDS011;54626;45.436;10.942;2023-10-13T00:10:55;7.88;;;2.72;;
67828;SDS011;54626;45.436;10.942;2023-10-13T00:13:29;7.22;;;2.15;;
67828;SDS011;54626;45.436;10.942;2023-10-13T00:16:00;4.10;;;1.30;;
67828;SDS011;54626;45.436;10.942;2023-10-13T00:18:29;4.18;;;1.95;;
67828;SDS011;54626;45.436;10.942;2023-10-13T00:21:00;4.90;;;3.20;;
67828;SDS011;54626;45.436;10.942;2023-10-13T00:23:35;4.47;;;2.03;;
67828;SDS011;54626;45.436;10.942;2023-10-13T00:26:02;2.90;;;1.75;;
67828;SDS011;54626;45.436;10.942;2023-10-13T00:28:29;4.75;;;2.38;;
67828;SDS011;54626;45.436;10.942;2023-10-13T00:31:16;7.63;;;3.20;;
67828;SDS011;54626;45.436;10.942;2023-10-13T00:33:46;11.23;;;3.03;;
67828;SDS011;54626;45.436;10.942;2023-10-13T00:36:12;2.50;;;2.22;;
67828;SDS011;54626;45.436;10.942;2023-10-13T00:38:45;3.53;;;1.67;;
67828;SDS011;54626;45.436;10.942;2023-10-13T00:41:18;7.97;;;2.72;;
67828;SDS011;54626;45.436;10.942;2023-10-13T00:44:00;5.05;;;1.75;;
67828;SDS011;54626;45.436;10.942;2023-10-13T00:46:35;5.50;;;3.38;;
67828;SDS011;54626;45.436;10.942;2023-10-13T00:49:05;4.25;;;2.50;;
67828;SDS011;54626;45.436;10.942;2023-10-13T00:51:34;3.65;;;1.77;;
67828;SDS011;54626;45.436;10.942;2023-10-13T00:54:02;5.75;;;1.88;;
67828;SDS011;54626;45.436;10.942;2023-10-13T00:56:34;5.47;;;3.60;;
67828;SDS011;54626;45.436;10.942;2023-10-13T00:59:07;6.20;;;2.75;;
67828;SDS011;54626;45.436;10.942;2023-10-13T01:01:37;5.18;;;1.63;;
67828;SDS011;54626;45.436;10.942;2023-10-13T01:04:09;4.22;;;2.17;;
67828;SDS011;54626;45.436;10.942;2023-10-13T01:06:39;4.43;;;1.75;;
67828;SDS011;54626;45.436;10.942;2023-10-13T01:09:07;8.73;;;2.55;;
67828;SDS011;54626;45.436;10.942;2023-10-13T01:11:50;6.40;;;2.70;;
67828;SDS011;54626;45.436;10.942;2023-10-13T01:14:21;3.35;;;1.30;;
67828;SDS011;54626;45.436;10.942;2023-10-13T01:16:50;2.05;;;1.23;;
67828;SDS011;54626;45.436;10.942;2023-10-13T01:19:22;5.50;;;1.98;;
67828;SDS011;54626;45.436;10.942;2023-10-13T01:21:53;4.07;;;1.70;;
67828;SDS011;54626;45.436;10.942;2023-10-13T01:24:29;7.05;;;2.25;;
67828;SDS011;54626;45.436;10.942;2023-10-13T01:27:04;7.43;;;2.95;;
67828;SDS011;54626;45.436;10.942;2023-10-13T01:29:46;10.40;;;2.72;;
67828;SDS011;54626;45.436;10.942;2023-10-13T01:32:18;7.53;;;2.42;;
67828;SDS011;54626;45.436;10.942;2023-10-13T01:34:45;15.05;;;4.18;;
67828;SDS011;54626;45.436;10.942;2023-10-13T01:37:21;6.05;;;2.72;;
67828;SDS011;54626;45.436;10.942;2023-10-13T01:39:48;9.23;;;2.70;;
67828;SDS011;54626;45.436;10.942;2023-10-13T01:42:15;8.98;;;3.72;;
67828;SDS011;54626;45.436;10.942;2023-10-13T01:44:50;4.88;;;2.13;;
67828;SDS011;54626;45.436;10.942;2023-10-13T01:47:22;1.83;;;1.05;;
67828;SDS011;54626;45.436;10.942;2023-10-13T01:49:50;3.00;;;1.85;;
67828;SDS011;54626;45.436;10.942;2023-10-13T01:52:17;8.40;;;2.80;;
67828;SDS011;54626;45.436;10.942;2023-10-13T01:54:47;6.95;;;2.67;;
67828;SDS011;54626;45.436;10.942;2023-10-13T01:57:16;7.93;;;3.05;;
67828;SDS011;54626;45.436;10.942;2023-10-13T01:59:44;4.78;;;1.85;;
67828;SDS011;54626;45.436;10.942;2023-10-13T02:02:11;8.23;;;4.07;;
67828;SDS011;54626;45.436;10.942;2023-10-13T02:04:43;5.28;;;2.65;;
67828;SDS011;54626;45.436;10.942;2023-10-13T02:07:15;4.85;;;2.83;;
67828;SDS011;54626;45.436;10.942;2023-10-13T02:09:42;6.03;;;2.75;;
67828;SDS011;54626;45.436;10.942;2023-10-13T02:12:11;4.35;;;2.28;;
67828;SDS011;54626;45.436;10.942;2023-10-13T02:14:38;7.03;;;2.35;;
67828;SDS011;54626;45.436;10.942;2023-10-13T02:17:04;10.13;;;2.63;;
67828;SDS011;54626;45.436;10.942;2023-10-13T02:19:42;5.88;;;2.38;;
67828;SDS011;54626;45.436;10.942;2023-10-13T02:22:13;2.88;;;1.52;;
67828;SDS011;54626;45.436;10.942;2023-10-13T02:25:01;6.38;;;2.40;;
67828;SDS011;54626;45.436;10.942;2023-10-13T02:27:35;4.22;;;2.40;;
67828;SDS011;54626;45.436;10.942;2023-10-13T02:30:09;4.30;;;2.78;;
67828;SDS011;54626;45.436;10.942;2023-10-13T02:32:41;6.65;;;2.85;;
67828;SDS011;54626;45.436;10.942;2023-10-13T02:35:10;6.50;;;2.75;;
67828;SDS011;54626;45.436;10.942;2023-10-13T02:37:41;2.83;;;1.13;;
67828;SDS011;54626;45.436;10.942;2023-10-13T02:40:20;7.95;;;3.13;;
67828;SDS011;54626;45.436;10.942;2023-10-13T02:42:49;3.83;;;1.95;;
67828;SDS011;54626;45.436;10.942;2023-10-13T02:45:16;4.63;;;1.90;;
67828;SDS011;54626;45.436;10.942;2023-10-13T02:47:48;5.00;;;1.80;;
67828;SDS011;54626;45.436;10.942;2023-10-13T02:50:34;3.95;;;2.72;;
67828;SDS011;54626;45.436;10.942;2023-10-13T02:53:02;4.22;;;2.60;;
67828;SDS011;54626;45.436;10.942;2023-10-13T02:55:48;6.60;;;2.63;;
67828;SDS011;54626;45.436;10.942;2023-10-13T02:58:18;5.00;;;1.85;;
67828;SDS011;54626;45.436;10.942;2023-10-13T03:00:47;3.00;;;1.73;;
67828;SDS011;54626;45.436;10.942;2023-10-13T03:03:13;6.65;;;2.45;;
67828;SDS011;54626;45.436;10.942;2023-10-13T03:05:45;5.63;;;2.97;;
67828;SDS011;54626;45.436;10.942;2023-10-13T03:08:12;7.18;;;3.42;;
67828;SDS011;54626;45.436;10.942;2023-10-13T03:10:46;6.45;;;2.55;;
67828;SDS011;54626;45.436;10.942;2023-10-13T03:13:15;6.75;;;3.42;;
67828;SDS011;54626;45.436;10.942;2023-10-13T03:15:42;6.30;;;4.15;;
67828;SDS011;54626;45.436;10.942;2023-10-13T03:18:13;5.47;;;2.17;;
67828;SDS011;54626;45.436;10.942;2023-10-13T03:20:44;7.82;;;4.35;;
67828;SDS011;54626;45.436;10.942;2023-10-13T03:23:16;4.53;;;1.20;;
67828;SDS011;54626;45.436;10.942;2023-10-13T03:25:45;2.50;;;1.33;;
67828;SDS011;54626;45.436;10.942;2023-10-13T03:28:16;5.82;;;3.17;;
67828;SDS011;54626;45.436;10.942;2023-10-13T03:30:50;4.75;;;2.38;;
67828;SDS011;54626;45.436;10.942;2023-10-13T03:33:19;8.77;;;2.97;;
67828;SDS011;54626;45.436;10.942;2023-10-13T03:35:55;5.82;;;3.15;;
67828;SDS011;54626;45.436;10.942;2023-10-13T03:38:31;6.60;;;2.38;;
67828;SDS011;54626;45.436;10.942;2023-10-13T03:41:02;9.85;;;4.47;;
67828;SDS011;54626;45.436;10.942;2023-10-13T03:43:45;6.40;;;2.88;;
67828;SDS011;54626;45.436;10.942;2023-10-13T03:46:13;4.20;;;3.00;;
67828;SDS011;54626;45.436;10.942;2023-10-13T03:48:40;10.05;;;3.42;;
67828;SDS011;54626;45.436;10.942;2023-10-13T03:51:20;3.42;;;1.85;;
67828;SDS011;54626;45.436;10.942;2023-10-13T03:53:47;10.93;;;4.32;;
67828;SDS011;54626;45.436;10.942;2023-10-13T03:56:22;3.42;;;2.58;;
67828;SDS011;54626;45.436;10.942;2023-10-13T03:58:58;6.60;;;2.58;;
67828;SDS011;54626;45.436;10.942;2023-10-13T04:01:41;12.77;;;5.03;;
67828;SDS011;54626;45.436;10.942;2023-10-13T04:04:08;3.50;;;1.65;;
67828;SDS011;54626;45.436;10.942;2023-10-13T04:06:38;9.30;;;3.88;;
67828;SDS011;54626;45.436;10.942;2023-10-13T04:09:15;4.63;;;1.98;;
67828;SDS011;54626;45.436;10.942;2023-10-13T04:12:01;5.35;;;2.08;;
67828;SDS011;54626;45.436;10.942;2023-10-13T04:17:20;7.72;;;2.75;;
67828;SDS011;54626;45.436;10.942;2023-10-13T04:19:54;5.38;;;1.92;;
67828;SDS011;54626;45.436;10.942;2023-10-13T04:22:31;6.20;;;2.30;;
67828;SDS011;54626;45.436;10.942;2023-10-13T04:25:17;7.28;;;3.25;;
67828;SDS011;54626;45.436;10.942;2023-10-13T04:28:04;8.10;;;4.93;;
67828;SDS011;54626;45.436;10.942;2023-10-13T04:30:47;12.38;;;4.40;;
67828;SDS011;54626;45.436;10.942;2023-10-13T04:33:23;3.92;;;1.50;;
67828;SDS011;54626;45.436;10.942;2023-10-13T04:36:13;10.45;;;4.07;;
67828;SDS011;54626;45.436;10.942;2023-10-13T04:38:43;5.63;;;2.65;;
67828;SDS011;54626;45.436;10.942;2023-10-13T04:47:00;4.05;;;2.03;;
67828;SDS011;54626;45.436;10.942;2023-10-13T04:49:47;2.95;;;1.85;;
67828;SDS011;54626;45.436;10.942;2023-10-13T04:52:14;6.57;;;2.63;;
67828;SDS011;54626;45.436;10.942;2023-10-13T04:54:53;7.28;;;2.85;;
67828;SDS011;54626;45.436;10.942;2023-10-13T04:57:36;12.10;;;2.97;;
67828;SDS011;54626;45.436;10.942;2023-10-13T05:00:19;7.75;;;2.22;;
67828;SDS011;54626;45.436;10.942;2023-10-13T05:02:46;6.72;;;4.88;;
67828;SDS011;54626;45.436;10.942;2023-10-13T05:05:29;12.48;;;4.43;;
67828;SDS011;54626;45.436;10.942;2023-10-13T05:08:22;8.10;;;2.85;;
67828;SDS011;54626;45.436;10.942;2023-10-13T05:11:12;4.90;;;2.45;;
67828;SDS011;54626;45.436;10.942;2023-10-13T05:13:57;8.38;;;2.58;;
67828;SDS011;54626;45.436;10.942;2023-10-13T05:16:45;8.23;;;3.33;;
67828;SDS011;54626;45.436;10.942;2023-10-13T05:19:38;9.50;;;4.72;;
67828;SDS011;54626;45.436;10.942;2023-10-13T05:22:24;5.68;;;2.35;;
67828;SDS011;54626;45.436;10.942;2023-10-13T05:25:09;9.10;;;5.15;;
67828;SDS011;54626;45.436;10.942;2023-10-13T05:27:55;6.75;;;3.30;;
67828;SDS011;54626;45.436;10.942;2023-10-13T05:30:58;5.00;;;2.45;;
67828;SDS011;54626;45.436;10.942;2023-10-13T05:33:44;7.28;;;3.47;;
67828;SDS011;54626;45.436;10.942;2023-10-13T05:36:29;5.05;;;2.90;;
67828;SDS011;54626;45.436;10.942;2023-10-13T05:39:14;5.68;;;2.53;;
67828;SDS011;54626;45.436;10.942;2023-10-13T05:44:44;4.97;;;2.70;;
67828;SDS011;54626;45.436;10.942;2023-10-13T05:47:33;3.70;;;1.80;;
67828;SDS011;54626;45.436;10.942;2023-10-13T05:50:11;4.47;;;2.53;;
67828;SDS011;54626;45.436;10.942;2023-10-13T05:52:50;9.15;;;4.50;;
67828;SDS011;54626;45.436;10.942;2023-10-13T05:55:24;6.20;;;2.42;;
67828;SDS011;54626;45.436;10.942;2023-10-13T05:58:11;4.38;;;2.47;;
67828;SDS011;54626;45.436;10.942;2023-10-13T06:00:57;4.15;;;2.10;;
67828;SDS011;54626;45.436;10.942;2023-10-13T06:03:48;5.55;;;2.20;;
67828;SDS011;54626;45.436;10.942;2023-10-13T06:09:18;3.33;;;2.40;;
67828;SDS011;54626;45.436;10.942;2023-10-13T06:12:03;6.15;;;2.72;;
67828;SDS011;54626;45.436;10.942;2023-10-13T06:14:52;5.07;;;2.60;;
67828;SDS011;54626;45.436;10.942;2023-10-13T06:17:37;5.30;;;2.92;;
67828;SDS011;54626;45.436;10.942;2023-10-13T06:20:23;5.18;;;2.67;;
67828;SDS011;54626;45.436;10.942;2023-10-13T06:25:53;7.10;;;3.03;;
67828;SDS011;54626;45.436;10.942;2023-10-13T06:28:41;8.38;;;2.78;;
67828;SDS011;54626;45.436;10.942;2023-10-13T06:31:09;10.35;;;2.83;;
67828;SDS011;54626;45.436;10.942;2023-10-13T06:33:54;8.23;;;3.40;;
67828;SDS011;54626;45.436;10.942;2023-10-13T06:36:22;5.15;;;2.67;;
67828;SDS011;54626;45.436;10.942;2023-10-13T06:38:48;6.78;;;2.40;;
67828;SDS011;54626;45.436;10.942;2023-10-13T06:41:44;2.30;;;1.58;;
67828;SDS011;54626;45.436;10.942;2023-10-13T06:44:10;8.15;;;2.88;;
67828;SDS011;54626;45.436;10.942;2023-10-13T06:46:42;13.15;;;3.63;;
67828;SDS011;54626;45.436;10.942;2023-10-13T06:49:09;5.95;;;2.92;;
67828;SDS011;54626;45.436;10.942;2023-10-13T06:51:38;8.23;;;2.72;;
67828;SDS011;54626;45.436;10.942;2023-10-13T06:54:05;3.38;;;1.58;;
67828;SDS011;54626;45.436;10.942;2023-10-13T06:56:37;3.63;;;2.00;;
67828;SDS011;54626;45.436;10.942;2023-10-13T06:59:06;7.38;;;2.33;;
67828;SDS011;54626;45.436;10.942;2023-10-13T07:01:32;7.25;;;2.75;;
67828;SDS011;54626;45.436;10.942;2023-10-13T07:04:08;6.75;;;2.70;;
67828;SDS011;54626;45.436;10.942;2023-10-13T07:06:43;6.30;;;2.63;;
67828;SDS011;54626;45.436;10.942;2023-10-13T07:09:16;3.95;;;1.45;;
67828;SDS011;54626;45.436;10.942;2023-10-13T07:12:05;3.40;;;2.08;;
67828;SDS011;54626;45.436;10.942;2023-10-13T07:14:33;10.77;;;5.30;;
67828;SDS011;54626;45.436;10.942;2023-10-13T07:17:01;5.47;;;2.75;;
67828;SDS011;54626;45.436;10.942;2023-10-13T07:19:31;6.80;;;2.60;;
67828;SDS011;54626;45.436;10.942;2023-10-13T07:22:01;9.68;;;3.67;;
67828;SDS011;54626;45.436;10.942;2023-10-13T07:24:47;11.57;;;3.67;;
67828;SDS011;54626;45.436;10.942;2023-10-13T07:27:24;6.95;;;3.67;;
67828;SDS011;54626;45.436;10.942;2023-10-13T07:29:52;7.50;;;2.97;;
67828;SDS011;54626;45.436;10.942;2023-10-13T07:32:39;10.88;;;4.75;;
67828;SDS011;54626;45.436;10.942;2023-10-13T07:35:16;9.50;;;4.72;;
67828;SDS011;54626;45.436;10.942;2023-10-13T07:37:47;6.68;;;3.03;;
67828;SDS011;54626;45.436;10.942;2023-10-13T07:43:11;18.17;;;6.80;;
67828;SDS011;54626;45.436;10.942;2023-10-13T07:45:39;7.45;;;5.15;;
67828;SDS011;54626;45.436;10.942;2023-10-13T07:48:11;12.90;;;6.75;;
67828;SDS011;54626;45.436;10.942;2023-10-13T07:51:00;11.43;;;4.43;;
67828;SDS011;54626;45.436;10.942;2023-10-13T07:53:27;11.30;;;6.03;;
67828;SDS011;54626;45.436;10.942;2023-10-13T07:56:01;12.57;;;4.78;;
67828;SDS011;54626;45.436;10.942;2023-10-13T07:58:44;16.48;;;5.53;;
67828;SDS011;54626;45.436;10.942;2023-10-13T08:01:30;22.80;;;7.40;;
67828;SDS011;54626;45.436;10.942;2023-10-13T08:03:57;13.10;;;4.60;;
67828;SDS011;54626;45.436;10.942;2023-10-13T08:06:53;14.35;;;4.80;;
67828;SDS011;54626;45.436;10.942;2023-10-13T08:09:29;16.75;;;6.88;;
67828;SDS011;54626;45.436;10.942;2023-10-13T08:12:11;17.30;;;5.45;;
67828;SDS011;54626;45.436;10.942;2023-10-13T08:14:38;15.73;;;3.92;;
67828;SDS011;54626;45.436;10.942;2023-10-13T08:17:07;19.13;;;7.63;;
67828;SDS011;54626;45.436;10.942;2023-10-13T08:19:35;8.80;;;4.18;;
67828;SDS011;54626;45.436;10.942;2023-10-13T08:22:13;10.20;;;4.47;;
67828;SDS011;54626;45.436;10.942;2023-10-13T08:24:46;13.25;;;6.13;;
67828;SDS011;54626;45.436;10.942;2023-10-13T08:27:14;9.80;;;4.85;;
67828;SDS011;54626;45.436;10.942;2023-10-13T08:29:59;10.38;;;5.60;;
67828;SDS011;54626;45.436;10.942;2023-10-13T08:32:45;12.82;;;5.63;;
67828;SDS011;54626;45.436;10.942;2023-10-13T08:35:11;13.95;;;5.90;;
67828;SDS011;54626;45.436;10.942;2023-10-13T08:37:49;9.98;;;4.05;;
67828;SDS011;54626;45.436;10.942;2023-10-13T08:40:19;10.57;;;5.57;;
67828;SDS011;54626;45.436;10.942;2023-10-13T08:43:10;15.10;;;5.38;;
67828;SDS011;54626;45.436;10.942;2023-10-13T08:45:40;11.73;;;4.25;;
67828;SDS011;54626;45.436;10.942;2023-10-13T08:48:11;18.30;;;4.85;;
67828;SDS011;54626;45.436;10.942;2023-10-13T08:50:48;8.45;;;5.72;;
67828;SDS011;54626;45.436;10.942;2023-10-13T08:53:20;14.27;;;6.28;;
67828;SDS011;54626;45.436;10.942;2023-10-13T08:58:32;14.25;;;4.97;;
67828;SDS011;54626;45.436;10.942;2023-10-13T09:01:19;16.88;;;6.10;;
67828;SDS011;54626;45.436;10.942;2023-10-13T09:04:09;16.30;;;7.15;;
67828;SDS011;54626;45.436;10.942;2023-10-13T09:06:53;18.58;;;5.97;;
67828;SDS011;54626;45.436;10.942;2023-10-13T09:17:41;7.05;;;2.80;;
67828;SDS011;54626;45.436;10.942;2023-10-13T09:20:14;10.85;;;6.82;;
67828;SDS011;54626;45.436;10.942;2023-10-13T09:22:58;12.73;;;7.25;;
67828;SDS011;54626;45.436;10.942;2023-10-13T09:28:14;14.30;;;6.72;;
67828;SDS011;54626;45.436;10.942;2023-10-13T09:30:48;12.43;;;6.30;;
67828;SDS011;54626;45.436;10.942;2023-10-13T09:33:23;11.27;;;6.10;;
67828;SDS011;54626;45.436;10.942;2023-10-13T09:35:59;16.33;;;7.85;;
67828;SDS011;54626;45.436;10.942;2023-10-13T09:38:27;15.73;;;5.50;;
67828;SDS011;54626;45.436;10.942;2023-10-13T09:40:56;11.32;;;5.32;;
67828;SDS011;54626;45.436;10.942;2023-10-13T09:43:24;10.55;;;4.40;;
67828;SDS011;54626;45.436;10.942;2023-10-13T09:45:57;11.77;;;5.30;;
67828;SDS011;54626;45.436;10.942;2023-10-13T09:51:01;13.55;;;5.88;;
67828;SDS011;54626;45.436;10.942;2023-10-13T09:53:31;11.70;;;4.55;;
67828;SDS011;54626;45.436;10.942;2023-10-13T09:56:14;15.65;;;6.28;;
67828;SDS011;54626;45.436;10.942;2023-10-13T09:58:51;13.68;;;5.93;;
67828;SDS011;54626;45.436;10.942;2023-10-13T10:01:27;12.15;;;5.50;;
67828;SDS011;54626;45.436;10.942;2023-10-13T10:04:08;7.00;;;3.65;;
67828;SDS011;54626;45.436;10.942;2023-10-13T10:06:54;12.65;;;5.30;;
67828;SDS011;54626;45.436;10.942;2023-10-13T10:09:26;13.27;;;4.78;;
67828;SDS011;54626;45.436;10.942;2023-10-13T10:17:40;14.27;;;4.78;;
67828;SDS011;54626;45.436;10.942;2023-10-13T10:20:08;12.05;;;5.10;;
67828;SDS011;54626;45.436;10.942;2023-10-13T10:22:59;14.20;;;5.88;;
67828;SDS011;54626;45.436;10.942;2023-10-13T10:25:33;12.77;;;5.20;;
67828;SDS011;54626;45.436;10.942;2023-10-13T10:28:04;13.60;;;2.83;;
67828;SDS011;54626;45.436;10.942;2023-10-13T10:30:36;6.13;;;3.60;;
67828;SDS011;54626;45.436;10.942;2023-10-13T10:33:08;8.65;;;4.68;;
67828;SDS011;54626;45.436;10.942;2023-10-13T10:35:40;7.95;;;3.70;;
67828;SDS011;54626;45.436;10.942;2023-10-13T10:38:10;5.50;;;2.72;;
67828;SDS011;54626;45.436;10.942;2023-10-13T10:40:54;10.32;;;3.75;;
67828;SDS011;54626;45.436;10.942;2023-10-13T10:46:12;12.13;;;6.35;;
67828;SDS011;54626;45.436;10.942;2023-10-13T10:48:43;8.93;;;4.95;;
67828;SDS011;54626;45.436;10.942;2023-10-13T10:51:12;15.77;;;4.57;;
67828;SDS011;54626;45.436;10.942;2023-10-13T10:53:41;11.43;;;5.32;;
67828;SDS011;54626;45.436;10.942;2023-10-13T10:56:13;9.75;;;4.32;;
67828;SDS011;54626;45.436;10.942;2023-10-13T10:58:50;6.47;;;3.38;;
67828;SDS011;54626;45.436;10.942;2023-10-13T11:01:22;6.43;;;3.17;;
67828;SDS011;54626;45.436;10.942;2023-10-13T11:04:01;10.77;;;4.55;;
67828;SDS011;54626;45.436;10.942;2023-10-13T11:06:35;12.88;;;5.13;;
67828;SDS011;54626;45.436;10.942;2023-10-13T11:09:09;11.45;;;4.53;;
67828;SDS011;54626;45.436;10.942;2023-10-13T11:14:40;8.88;;;3.80;;
67828;SDS011;54626;45.436;10.942;2023-10-13T11:17:08;13.38;;;4.65;;
67828;SDS011;54626;45.436;10.942;2023-10-13T11:19:45;11.45;;;4.47;;
67828;SDS011;54626;45.436;10.942;2023-10-13T11:24:56;6.60;;;4.15;;
67828;SDS011;54626;45.436;10.942;2023-10-13T11:27:29;9.98;;;4.43;;
67828;SDS011;54626;45.436;10.942;2023-10-13T11:30:16;6.72;;;2.05;;
67828;SDS011;54626;45.436;10.942;2023-10-13T11:33:01;9.98;;;3.95;;
67828;SDS011;54626;45.436;10.942;2023-10-13T11:35:32;10.50;;;4.20;;
67828;SDS011;54626;45.436;10.942;2023-10-13T11:38:24;6.75;;;3.30;;
67828;SDS011;54626;45.436;10.942;2023-10-13T11:43:34;8.82;;;3.63;;
67828;SDS011;54626;45.436;10.942;2023-10-13T11:46:24;6.93;;;3.50;;
67828;SDS011;54626;45.436;10.942;2023-10-13T11:49:08;7.63;;;3.10;;
67828;SDS011;54626;45.436;10.942;2023-10-13T11:51:42;7.20;;;3.35;;
67828;SDS011;54626;45.436;10.942;2023-10-13T11:54:13;3.50;;;1.35;;
67828;SDS011;54626;45.436;10.942;2023-10-13T11:56:39;3.67;;;1.92;;
67828;SDS011;54626;45.436;10.942;2023-10-13T11:59:07;10.38;;;3.63;;
67828;SDS011;54626;45.436;10.942;2023-10-13T12:01:43;9.45;;;2.50;;
67828;SDS011;54626;45.436;10.942;2023-10-13T12:04:29;11.38;;;3.63;;
67828;SDS011;54626;45.436;10.942;2023-10-13T12:07:01;6.22;;;2.47;;
67828;SDS011;54626;45.436;10.942;2023-10-13T12:09:47;5.80;;;2.00;;
67828;SDS011;54626;45.436;10.942;2023-10-13T12:12:24;8.20;;;3.03;;
67828;SDS011;54626;45.436;10.942;2023-10-13T12:14:52;5.78;;;3.33;;
67828;SDS011;54626;45.436;10.942;2023-10-13T12:17:23;8.02;;;3.63;;
67828;SDS011;54626;45.436;10.942;2023-10-13T12:19:58;6.80;;;4.65;;
67828;SDS011;54626;45.436;10.942;2023-10-13T12:22:31;3.63;;;2.55;;
67828;SDS011;54626;45.436;10.942;2023-10-13T12:28:10;5.53;;;2.65;;
67828;SDS011;54626;45.436;10.942;2023-10-13T12:30:47;4.07;;;1.95;;
67828;SDS011;54626;45.436;10.942;2023-10-13T12:33:22;8.75;;;2.90;;
67828;SDS011;54626;45.436;10.942;2023-10-13T12:36:00;5.88;;;2.25;;
67828;SDS011;54626;45.436;10.942;2023-10-13T12:38:39;5.30;;;2.50;;
67828;SDS011;54626;45.436;10.942;2023-10-13T12:41:16;4.57;;;1.67;;
67828;SDS011;54626;45.436;10.942;2023-10-13T12:44:03;1.73;;;1.13;;
67828;SDS011;54626;45.436;10.942;2023-10-13T12:46:50;3.42;;;1.42;;
67828;SDS011;54626;45.436;10.942;2023-10-13T12:49:36;3.33;;;1.60;;
67828;SDS011;54626;45.436;10.942;2023-10-13T12:52:09;5.15;;;1.92;;
67828;SDS011;54626;45.436;10.942;2023-10-13T12:54:43;4.38;;;1.10;;
67828;SDS011;54626;45.436;10.942;2023-10-13T12:57:25;5.78;;;2.67;;
67828;SDS011;54626;45.436;10.942;2023-10-13T12:59:55;3.95;;;1.98;;
67828;SDS011;54626;45.436;10.942;2023-10-13T13:02:22;9.75;;;1.90;;
67828;SDS011;54626;45.436;10.942;2023-10-13T13:04:53;4.07;;;1.83;;
67828;SDS011;54626;45.436;10.942;2023-10-13T13:07:23;5.47;;;2.58;;
67828;SDS011;54626;45.436;10.942;2023-10-13T13:09:56;4.70;;;2.80;;
67828;SDS011;54626;45.436;10.942;2023-10-13T13:12:26;4.13;;;1.98;;
67828;SDS011;54626;45.436;10.942;2023-10-13T13:14:56;5.78;;;3.35;;
67828;SDS011;54626;45.436;10.942;2023-10-13T13:17:22;7.00;;;2.85;;
67828;SDS011;54626;45.436;10.942;2023-10-13T13:19:49;4.90;;;2.00;;
67828;SDS011;54626;45.436;10.942;2023-10-13T13:22:16;3.45;;;2.22;;
67828;SDS011;54626;45.436;10.942;2023-10-13T13:24:44;7.30;;;2.90;;
67828;SDS011;54626;45.436;10.942;2023-10-13T13:27:11;7.18;;;3.30;;
67828;SDS011;54626;45.436;10.942;2023-10-13T13:29:43;6.63;;;2.83;;
67828;SDS011;54626;45.436;10.942;2023-10-13T13:32:10;8.15;;;4.32;;
67828;SDS011;54626;45.436;10.942;2023-10-13T13:34:51;7.32;;;2.30;;
67828;SDS011;54626;45.436;10.942;2023-10-13T13:37:33;4.45;;;2.58;;
67828;SDS011;54626;45.436;10.942;2023-10-13T13:40:03;10.50;;;4.55;;
67828;SDS011;54626;45.436;10.942;2023-10-13T13:42:43;9.20;;;3.45;;
67828;SDS011;54626;45.436;10.942;2023-10-13T13:45:12;10.32;;;3.90;;
67828;SDS011;54626;45.436;10.942;2023-10-13T13:47:54;8.90;;;3.95;;
67828;SDS011;54626;45.436;10.942;2023-10-13T13:50:27;5.90;;;3.13;;
67828;SDS011;54626;45.436;10.942;2023-10-13T13:52:58;7.43;;;4.30;;
67828;SDS011;54626;45.436;10.942;2023-10-13T13:55:26;3.42;;;2.00;;
67828;SDS011;54626;45.436;10.942;2023-10-13T13:58:06;8.35;;;3.63;;
67828;SDS011;54626;45.436;10.942;2023-10-13T14:00:34;6.63;;;3.45;;
67828;SDS011;54626;45.436;10.942;2023-10-13T14:03:08;9.40;;;3.90;;
67828;SDS011;54626;45.436;10.942;2023-10-13T14:05:42;6.75;;;2.45;;
67828;SDS011;54626;45.436;10.942;2023-10-13T14:08:09;6.75;;;3.20;;
67828;SDS011;54626;45.436;10.942;2023-10-13T14:10:41;5.07;;;2.55;;
67828;SDS011;54626;45.436;10.942;2023-10-13T14:13:26;8.80;;;3.78;;
67828;SDS011;54626;45.436;10.942;2023-10-13T14:16:11;10.88;;;4.35;;
67828;SDS011;54626;45.436;10.942;2023-10-13T14:18:45;5.95;;;3.40;;
67828;SDS011;54626;45.436;10.942;2023-10-13T14:21:13;10.32;;;3.88;;
67828;SDS011;54626;45.436;10.942;2023-10-13T14:23:44;10.20;;;3.97;;
67828;SDS011;54626;45.436;10.942;2023-10-13T14:26:15;9.98;;;3.35;;
67828;SDS011;54626;45.436;10.942;2023-10-13T14:28:47;2.28;;;1.27;;
67828;SDS011;54626;45.436;10.942;2023-10-13T14:31:35;8.93;;;3.65;;
67828;SDS011;54626;45.436;10.942;2023-10-13T14:34:05;10.10;;;2.97;;
67828;SDS011;54626;45.436;10.942;2023-10-13T14:40:09;3.15;;;1.38;;
67828;SDS011;54626;45.436;10.942;2023-10-13T14:42:41;4.03;;;2.05;;
67828;SDS011;54626;45.436;10.942;2023-10-13T14:45:08;9.75;;;2.90;;
67828;SDS011;54626;45.436;10.942;2023-10-13T14:47:43;2.38;;;1.50;;
67828;SDS011;54626;45.436;10.942;2023-10-13T14:50:12;3.95;;;1.92;;
67828;SDS011;54626;45.436;10.942;2023-10-13T14:52:48;3.13;;;1.42;;
67828;SDS011;54626;45.436;10.942;2023-10-13T14:55:15;3.28;;;1.23;;
67828;SDS011;54626;45.436;10.942;2023-10-13T14:57:46;3.55;;;1.98;;
67828;SDS011;54626;45.436;10.942;2023-10-13T15:00:17;5.70;;;2.53;;
67828;SDS011;54626;45.436;10.942;2023-10-13T15:02:52;3.55;;;1.60;;
67828;SDS011;54626;45.436;10.942;2023-10-13T15:05:19;5.03;;;3.30;;
67828;SDS011;54626;45.436;10.942;2023-10-13T15:07:46;5.32;;;2.58;;
67828;SDS011;54626;45.436;10.942;2023-10-13T15:10:16;3.25;;;1.48;;
67828;SDS011;54626;45.436;10.942;2023-10-13T15:12:43;4.55;;;1.65;;
67828;SDS011;54626;45.436;10.942;2023-10-13T15:15:13;4.38;;;1.77;;
67828;SDS011;54626;45.436;10.942;2023-10-13T15:17:40;4.25;;;1.90;;
67828;SDS011;54626;45.436;10.942;2023-10-13T15:20:07;5.80;;;1.70;;
67828;SDS011;54626;45.436;10.942;2023-10-13T15:22:42;3.72;;;1.92;;
67828;SDS011;54626;45.436;10.942;2023-10-13T15:25:10;4.05;;;1.48;;
67828;SDS011;54626;45.436;10.942;2023-10-13T15:27:59;8.73;;;3.25;;
67828;SDS011;54626;45.436;10.942;2023-10-13T15:30:29;4.45;;;2.40;;
67828;SDS011;54626;45.436;10.942;2023-10-13T15:33:11;7.90;;;2.35;;
67828;SDS011;54626;45.436;10.942;2023-10-13T15:35:40;1.15;;;0.38;;
67828;SDS011;54626;45.436;10.942;2023-10-13T15:38:09;5.32;;;1.95;;
67828;SDS011;54626;45.436;10.942;2023-10-13T15:40:41;3.08;;;1.58;;
67828;SDS011;54626;45.436;10.942;2023-10-13T15:43:11;6.05;;;2.30;;
67828;SDS011;54626;45.436;10.942;2023-10-13T15:45:38;2.13;;;1.10;;
67828;SDS011;54626;45.436;10.942;2023-10-13T15:48:05;4.97;;;2.03;;
67828;SDS011;54626;45.436;10.942;2023-10-13T15:50:39;3.45;;;1.40;;
67828;SDS011;54626;45.436;10.942;2023-10-13T15:53:07;3.58;;;1.50;;
67828;SDS011;54626;45.436;10.942;2023-10-13T15:55:39;4.43;;;1.40;;
67828;SDS011;54626;45.436;10.942;2023-10-13T15:58:06;3.22;;;1.70;;
67828;SDS011;54626;45.436;10.942;2023-10-13T16:00:36;5.40;;;1.33;;
67828;SDS011;54626;45.436;10.942;2023-10-13T16:03:03;3.13;;;1.63;;
67828;SDS011;54626;45.436;10.942;2023-10-13T16:05:38;2.25;;;1.20;;
67828;SDS011;54626;45.436;10.942;2023-10-13T16:08:08;3.80;;;1.48;;
67828;SDS011;54626;45.436;10.942;2023-10-13T16:10:42;1.85;;;1.00;;
67828;SDS011;54626;45.436;10.942;2023-10-13T16:13:08;9.93;;;2.05;;